Time;durP1;ratioP1;P1;durP2;ratioP2;P2;SDS_P1;SDS_P2;PMS_P1;PMS_P2;Temp;Humidity;BMP_temperature;BMP_pressure;BME280_temperature;BME280_humidity;BME280_pressure;Samples;Min_cycle;Max_cycle;Signal;HPM_P1;HPM_P2
2023/03/09 00:01:50;;;;;;;3.07;1.10;;;11.40;99.90;;;;;;7391569;19;20866;-76
2023/03/09 00:04:17;;;;;;;6.65;1.50;;;11.40;99.90;;;;;;7389937;19;20558;-74
2023/03/09 00:06:43;;;;;;;2.07;1.00;;;11.50;99.90;;;;;;7391254;19;20470;-76
2023/03/09 00:09:11;;;;;;;2.27;1.10;;;11.50;99.90;;;;;;7392698;19;20141;-76
2023/03/09 00:11:41;;;;;;;2.60;0.93;;;11.50;99.90;;;;;;7391228;19;20182;-76
2023/03/09 00:14:06;;;;;;;6.60;1.10;;;11.40;99.90;;;;;;7389875;19;20146;-75
2023/03/09 00:16:32;;;;;;;2.10;1.00;;;11.40;99.90;;;;;;7392438;19;20170;-76
2023/03/09 00:18:58;;;;;;;2.73;1.00;;;11.50;99.90;;;;;;7391352;19;20159;-76
2023/03/09 00:21:36;;;;;;;2.60;1.13;;;11.50;99.90;;;;;;7390869;19;20139;-76
2023/03/09 00:24:13;;;;;;;2.80;1.00;;;11.60;99.90;;;;;;7388211;19;20237;-76
2023/03/09 00:26:41;;;;;;;2.17;1.00;;;11.50;99.90;;;;;;7391915;19;20173;-76
2023/03/09 00:29:10;;;;;;;4.70;1.00;;;11.60;99.90;;;;;;7391568;19;20506;-76
2023/03/09 00:31:36;;;;;;;2.22;0.70;;;11.60;99.90;;;;;;7390417;19;20564;-76
2023/03/09 00:34:02;;;;;;;0.80;0.70;;;11.60;99.90;;;;;;7388449;19;20154;-77
2023/03/09 00:36:28;;;;;;;4.27;0.93;;;11.60;99.90;;;;;;7389931;19;20519;-76
2023/03/09 00:38:55;;;;;;;1.33;0.63;;;11.60;99.90;;;;;;7388388;19;20214;-76
2023/03/09 00:41:23;;;;;;;1.17;0.90;;;11.60;99.90;;;;;;7391589;19;20206;-76
2023/03/09 00:43:49;;;;;;;2.13;0.70;;;11.60;99.90;;;;;;7387529;19;20159;-76
2023/03/09 00:46:15;;;;;;;4.93;0.80;;;11.60;99.90;;;;;;7388706;19;20154;-76
2023/03/09 00:48:42;;;;;;;1.10;0.80;;;11.60;99.90;;;;;;7390844;19;20685;-76
2023/03/09 00:51:09;;;;;;;1.20;0.70;;;11.60;99.90;;;;;;7388139;19;20187;-75
2023/03/09 00:53:35;;;;;;;0.95;0.65;;;11.60;99.90;;;;;;7389399;19;20142;-77
2023/03/09 00:56:03;;;;;;;0.80;0.63;;;11.60;99.90;;;;;;7388877;19;20146;-76
2023/03/09 00:58:29;;;;;;;2.15;0.63;;;11.60;99.90;;;;;;7390727;19;20401;-76
2023/03/09 01:00:56;;;;;;;1.07;0.73;;;11.50;99.90;;;;;;7388140;19;20146;-76
2023/03/09 01:03:21;;;;;;;0.93;0.60;;;11.60;99.90;;;;;;7388491;19;20168;-78
2023/03/09 01:05:47;;;;;;;0.70;0.50;;;11.60;99.90;;;;;;7390296;19;20436;-78
2023/03/09 01:08:13;;;;;;;0.40;0.40;;;11.50;99.90;;;;;;7388651;19;20470;-76
2023/03/09 01:10:39;;;;;;;0.77;0.50;;;11.50;99.90;;;;;;7385179;19;20591;-77
2023/03/09 01:13:05;;;;;;;0.53;0.40;;;11.60;99.90;;;;;;7386520;19;20498;-76
2023/03/09 01:15:31;;;;;;;0.93;0.40;;;11.50;99.90;;;;;;7390515;19;20170;-76
2023/03/09 01:17:57;;;;;;;1.55;0.30;;;11.60;99.90;;;;;;7387415;19;20142;-76
2023/03/09 01:20:23;;;;;;;0.40;0.30;;;11.50;99.90;;;;;;7388299;19;20501;-77
2023/03/09 01:22:49;;;;;;;0.60;0.43;;;11.40;99.90;;;;;;7386768;19;20154;-77
2023/03/09 01:25:15;;;;;;;0.73;0.30;;;11.40;99.90;;;;;;7388094;19;20135;-76
2023/03/09 01:27:40;;;;;;;0.40;0.30;;;11.40;99.90;;;;;;7387393;19;20178;-75
2023/03/09 01:30:07;;;;;;;0.50;0.20;;;11.30;99.90;;;;;;7387166;19;20154;-76
2023/03/09 01:32:33;;;;;;;1.07;0.30;;;11.20;99.90;;;;;;7386932;19;20218;-77
2023/03/09 01:34:58;;;;;;;0.40;0.40;;;11.30;99.90;;;;;;7388977;19;20142;-76
2023/03/09 01:37:24;;;;;;;0.30;0.20;;;11.30;99.90;;;;;;7379017;19;20142;-77
2023/03/09 01:39:50;;;;;;;0.30;0.30;;;11.20;99.90;;;;;;7387296;19;20190;-77
2023/03/09 01:42:16;;;;;;;0.30;0.30;;;11.10;99.90;;;;;;7386781;19;20154;-76
2023/03/09 01:44:41;;;;;;;0.30;0.30;;;11.00;99.90;;;;;;7386661;19;20131;-76
2023/03/09 01:47:10;;;;;;;0.20;0.20;;;11.00;99.90;;;;;;7388947;19;20166;-77
2023/03/09 01:49:48;;;;;;;1.00;0.30;;;11.10;99.90;;;;;;7382498;19;20134;-77
2023/03/09 01:52:21;;;;;;;0.40;0.40;;;11.10;99.90;;;;;;7387581;19;20142;-77
2023/03/09 01:54:58;;;;;;;2.33;0.40;;;11.10;99.90;;;;;;7388376;19;20451;-77
2023/03/09 01:57:29;;;;;;;1.38;0.20;;;11.10;99.90;;;;;;7390895;19;20142;-75
2023/03/09 02:00:05;;;;;;;0.83;0.37;;;11.10;99.90;;;;;;7389119;19;20499;-76
2023/03/09 02:02:35;;;;;;;0.60;0.40;;;11.00;99.90;;;;;;7390333;19;20135;-78
2023/03/09 02:05:04;;;;;;;0.30;0.30;;;11.00;99.90;;;;;;7386993;19;20197;-76
2023/03/09 02:07:34;;;;;;;0.30;0.30;;;11.10;99.90;;;;;;7388208;19;20138;-76
2023/03/09 02:10:11;;;;;;;0.57;0.20;;;10.90;99.90;;;;;;7386797;19;20143;-75
2023/03/09 02:12:40;;;;;;;0.20;0.20;;;10.90;99.90;;;;;;7387575;19;20151;-76
2023/03/09 02:15:07;;;;;;;0.30;0.30;;;10.90;99.90;;;;;;7388076;19;20139;-76
2023/03/09 02:17:36;;;;;;;0.30;0.20;;;10.90;99.90;;;;;;7387194;19;20314;-77
2023/03/09 02:20:21;;;;;;;0.20;0.20;;;10.90;99.90;;;;;;7386540;19;20154;-76
2023/03/09 02:22:48;;;;;;;0.67;0.40;;;10.90;99.90;;;;;;7386171;19;20167;-76
2023/03/09 02:25:30;;;;;;;1.03;0.40;;;11.00;99.90;;;;;;7388896;19;20154;-75
2023/03/09 02:27:57;;;;;;;0.30;0.20;;;10.90;99.90;;;;;;7386466;19;20611;-74
2023/03/09 02:30:26;;;;;;;2.03;0.30;;;10.90;99.90;;;;;;7385130;19;20161;-77
2023/03/09 02:33:05;;;;;;;0.30;0.30;;;10.90;99.90;;;;;;7386594;19;20160;-77
2023/03/09 02:35:31;;;;;;;0.30;0.30;;;10.90;99.90;;;;;;7388919;19;20138;-75
2023/03/09 02:37:57;;;;;;;0.20;0.20;;;10.80;99.90;;;;;;7386493;19;20602;-76
2023/03/09 02:40:33;;;;;;;0.20;0.20;;;10.80;99.90;;;;;;7389887;19;20612;-77
2023/03/09 02:43:02;;;;;;;1.37;0.80;;;10.70;99.90;;;;;;7391504;19;20158;-75
2023/03/09 02:45:29;;;;;;;1.03;0.30;;;10.80;99.90;;;;;;7393598;19;20615;-75
2023/03/09 02:47:55;;;;;;;1.70;0.30;;;10.70;99.90;;;;;;7392631;19;20158;-76
2023/03/09 02:50:21;;;;;;;0.30;0.30;;;10.80;99.90;;;;;;7395309;19;20155;-76
2023/03/09 02:52:47;;;;;;;0.30;0.30;;;10.70;99.90;;;;;;7392081;19;21590;-76
2023/03/09 02:55:12;;;;;;;0.30;0.30;;;10.80;99.90;;;;;;7394124;19;20138;-76
2023/03/09 02:57:40;;;;;;;0.30;0.30;;;10.80;99.90;;;;;;7393558;19;20153;-76
2023/03/09 03:00:10;;;;;;;0.23;0.23;;;10.70;99.90;;;;;;7388704;19;20163;-76
2023/03/09 03:02:37;;;;;;;0.20;0.20;;;10.80;99.90;;;;;;7389476;19;20143;-76
2023/03/09 03:05:03;;;;;;;1.53;0.57;;;10.80;99.90;;;;;;7391516;19;20190;-76
2023/03/09 03:07:29;;;;;;;1.73;0.30;;;10.90;99.90;;;;;;7391237;19;20170;-75
2023/03/09 03:09:55;;;;;;;0.30;0.30;;;10.90;99.90;;;;;;7392041;19;20485;-76
2023/03/09 03:12:20;;;;;;;0.40;0.20;;;10.80;99.90;;;;;;7390992;19;20599;-75
2023/03/09 03:14:46;;;;;;;0.70;0.30;;;10.90;99.90;;;;;;7394050;19;20149;-75
2023/03/09 03:17:12;;;;;;;0.38;0.30;;;10.80;99.90;;;;;;7393418;19;20143;-76
2023/03/09 03:19:38;;;;;;;0.23;0.20;;;11.00;99.90;;;;;;7391527;19;20619;-76
2023/03/09 03:22:04;;;;;;;1.33;0.50;;;11.00;99.90;;;;;;7393507;19;20139;-76
2023/03/09 03:24:30;;;;;;;1.08;0.30;;;11.10;99.90;;;;;;7389544;19;20178;-76
2023/03/09 03:26:56;;;;;;;0.20;0.20;;;11.10;99.90;;;;;;7390762;19;20664;-77
2023/03/09 03:29:22;;;;;;;0.30;0.30;;;11.20;99.90;;;;;;7388130;19;20134;-76
2023/03/09 03:31:49;;;;;;;0.20;0.20;;;11.30;99.90;;;;;;7390387;19;20205;-75
2023/03/09 03:34:15;;;;;;;0.53;0.43;;;11.30;99.90;;;;;;7388078;19;20139;-75
2023/03/09 03:36:41;;;;;;;0.23;0.23;;;11.40;99.90;;;;;;7390504;19;20190;-75
2023/03/09 03:39:08;;;;;;;0.50;0.30;;;11.10;99.90;;;;;;7392132;19;20130;-76
2023/03/09 03:41:34;;;;;;;0.53;0.30;;;11.30;99.90;;;;;;7392329;19;20567;-76
2023/03/09 03:44:00;;;;;;;0.67;0.27;;;11.00;99.90;;;;;;7390004;19;20214;-76
2023/03/09 03:46:26;;;;;;;0.70;0.40;;;10.90;99.90;;;;;;7392765;19;20152;-76
2023/03/09 03:48:52;;;;;;;1.03;0.40;;;10.90;99.90;;;;;;7390958;19;20714;-76
2023/03/09 03:51:17;;;;;;;0.40;0.40;;;11.00;99.90;;;;;;7389363;19;20468;-76
2023/03/09 03:53:43;;;;;;;0.33;0.27;;;11.00;99.90;;;;;;7390416;19;20600;-76
2023/03/09 03:56:10;;;;;;;1.33;0.40;;;11.00;99.90;;;;;;7390739;19;20138;-75
2023/03/09 03:58:35;;;;;;;0.57;0.30;;;11.00;99.90;;;;;;7391636;19;20154;-77
2023/03/09 04:01:01;;;;;;;0.50;0.33;;;11.10;99.90;;;;;;7389528;19;20489;-75
2023/03/09 04:03:27;;;;;;;0.87;0.30;;;11.00;99.90;;;;;;7390276;19;20624;-75
2023/03/09 04:05:53;;;;;;;1.63;0.70;;;10.90;99.90;;;;;;7390368;19;20151;-76
2023/03/09 04:08:19;;;;;;;0.67;0.40;;;10.90;99.90;;;;;;7392146;19;20131;-76
2023/03/09 04:10:44;;;;;;;2.63;0.40;;;10.90;99.90;;;;;;7390221;19;20142;-76
2023/03/09 04:13:10;;;;;;;1.43;0.43;;;10.80;99.90;;;;;;7389708;19;20143;-76
2023/03/09 04:15:36;;;;;;;1.37;0.50;;;10.80;99.90;;;;;;7389653;19;20159;-76
2023/03/09 04:18:03;;;;;;;1.23;0.47;;;10.90;99.90;;;;;;7390080;19;20151;-76
2023/03/09 04:20:28;;;;;;;1.33;0.47;;;10.90;99.90;;;;;;7388879;19;20142;-77
2023/03/09 04:22:54;;;;;;;2.00;0.73;;;10.70;99.90;;;;;;7388146;19;20614;-77
2023/03/09 04:25:20;;;;;;;1.13;0.80;;;10.90;99.90;;;;;;7389773;19;20154;-76
2023/03/09 04:27:46;;;;;;;5.47;1.07;;;10.90;99.90;;;;;;7391700;19;20151;-77
2023/03/09 04:30:12;;;;;;;1.87;0.70;;;11.00;99.90;;;;;;7388774;19;20598;-77
2023/03/09 04:32:40;;;;;;;3.03;0.97;;;11.00;99.90;;;;;;7390156;19;20451;-77
2023/03/09 04:35:08;;;;;;;1.70;0.60;;;10.90;99.90;;;;;;7390307;19;20202;-77
2023/03/09 04:37:35;;;;;;;3.00;1.00;;;10.90;99.90;;;;;;7388692;19;20142;-77
2023/03/09 04:40:01;;;;;;;2.23;0.80;;;10.80;99.90;;;;;;7389339;19;20161;-76
2023/03/09 04:42:26;;;;;;;1.27;0.82;;;10.80;99.90;;;;;;7389610;19;20134;-76
2023/03/09 04:44:53;;;;;;;3.78;1.00;;;10.70;99.90;;;;;;7386152;19;20153;-76
2023/03/09 04:47:19;;;;;;;2.13;1.00;;;10.90;99.90;;;;;;7389530;19;20131;-76
2023/03/09 04:49:45;;;;;;;4.70;1.50;;;10.90;99.90;;;;;;7388859;19;20153;-76
2023/03/09 04:52:10;;;;;;;4.07;0.93;;;10.90;99.90;;;;;;7388529;19;20135;-77
2023/03/09 04:54:39;;;;;;;6.30;1.23;;;10.90;99.90;;;;;;7387329;19;20175;-76
2023/03/09 04:57:04;;;;;;;4.07;0.90;;;10.80;99.90;;;;;;7390488;19;20146;-76
2023/03/09 04:59:30;;;;;;;5.15;1.23;;;10.70;99.90;;;;;;7393073;19;20123;-76
2023/03/09 05:01:56;;;;;;;2.38;0.90;;;10.80;99.90;;;;;;7388913;19;20517;-76
2023/03/09 05:04:23;;;;;;;2.70;0.90;;;10.80;99.90;;;;;;7386042;19;20163;-74
2023/03/09 05:06:49;;;;;;;4.50;1.10;;;10.90;99.90;;;;;;7389979;19;20161;-77
2023/03/09 05:09:14;;;;;;;3.00;1.10;;;10.80;99.90;;;;;;7389342;19;20226;-76
2023/03/09 05:11:41;;;;;;;4.18;1.02;;;10.80;99.90;;;;;;7390621;19;20127;-77
2023/03/09 05:14:07;;;;;;;5.23;1.40;;;10.70;99.90;;;;;;7387797;19;20142;-76
2023/03/09 05:16:33;;;;;;;3.87;1.00;;;10.80;99.90;;;;;;7387032;19;20127;-76
2023/03/09 05:18:59;;;;;;;5.90;1.37;;;10.70;99.90;;;;;;7387049;19;20134;-76
2023/03/09 05:21:25;;;;;;;4.30;1.17;;;10.80;99.90;;;;;;7387114;19;20440;-76
2023/03/09 05:23:50;;;;;;;5.63;1.40;;;10.60;99.90;;;;;;7387252;19;21420;-76
2023/03/09 05:26:16;;;;;;;3.27;0.80;;;10.70;99.90;;;;;;7389017;19;20147;-77
2023/03/09 05:28:42;;;;;;;7.33;1.23;;;10.80;99.90;;;;;;7389121;19;20479;-76
2023/03/09 05:31:12;;;;;;;3.03;0.90;;;11.00;99.90;;;;;;7388031;19;20655;-75
2023/03/09 05:33:38;;;;;;;5.93;1.10;;;11.10;99.90;;;;;;7386410;19;20135;-76
2023/03/09 05:36:18;;;;;;;3.90;1.17;;;10.90;99.90;;;;;;7387766;19;20145;-76
2023/03/09 05:38:44;;;;;;;4.10;1.30;;;10.80;99.90;;;;;;7387449;19;20138;-75
2023/03/09 05:41:10;;;;;;;3.80;0.93;;;10.90;99.90;;;;;;7386955;19;20157;-77
2023/03/09 05:43:36;;;;;;;4.23;1.03;;;11.10;99.90;;;;;;7385709;19;20135;-76
2023/03/09 05:46:03;;;;;;;7.00;1.20;;;11.00;99.90;;;;;;7387378;19;20217;-77
2023/03/09 05:48:29;;;;;;;2.17;0.80;;;10.90;99.90;;;;;;7388732;19;20142;-76
2023/03/09 05:50:58;;;;;;;5.70;1.07;;;10.90;99.90;;;;;;7386413;19;20150;-77
2023/03/09 05:53:24;;;;;;;4.33;1.20;;;11.10;99.90;;;;;;7388719;19;20153;-77
2023/03/09 05:55:53;;;;;;;5.80;1.60;;;11.20;99.90;;;;;;7386177;19;20119;-76
2023/03/09 05:58:19;;;;;;;4.53;1.33;;;11.10;99.90;;;;;;7386919;19;20238;-77
2023/03/09 06:00:46;;;;;;;3.70;1.00;;;10.90;99.90;;;;;;7387138;19;20134;-76
2023/03/09 06:03:12;;;;;;;4.30;1.00;;;10.70;99.90;;;;;;7385454;19;20266;-76
2023/03/09 06:05:38;;;;;;;3.77;1.10;;;10.90;99.90;;;;;;7387052;19;20138;-76
2023/03/09 06:08:04;;;;;;;3.90;0.90;;;10.90;99.90;;;;;;7386253;19;20155;-76
2023/03/09 06:10:30;;;;;;;5.10;1.33;;;11.10;99.90;;;;;;7386111;19;20130;-77
2023/03/09 06:12:55;;;;;;;3.47;1.27;;;11.10;99.90;;;;;;7387642;19;20142;-76
2023/03/09 06:15:21;;;;;;;4.10;1.10;;;11.10;99.90;;;;;;7388591;19;20487;-76
2023/03/09 06:17:48;;;;;;;2.90;1.00;;;11.10;99.90;;;;;;7393602;19;20146;-76
2023/03/09 06:20:14;;;;;;;3.43;1.30;;;11.10;99.90;;;;;;7395438;19;20150;-75
2023/03/09 06:22:40;;;;;;;5.93;1.30;;;11.00;99.90;;;;;;7392374;19;20139;-75
2023/03/09 06:25:07;;;;;;;3.87;1.10;;;10.90;99.90;;;;;;7392011;19;20154;-75
2023/03/09 06:27:34;;;;;;;3.50;1.30;;;10.80;99.90;;;;;;7395555;19;20154;-76
2023/03/09 06:30:00;;;;;;;2.67;1.10;;;11.00;99.90;;;;;;7392605;19;20170;-76
2023/03/09 06:32:25;;;;;;;3.67;1.20;;;11.00;99.90;;;;;;7391117;19;20591;-77
2023/03/09 06:34:51;;;;;;;7.83;1.50;;;10.90;99.90;;;;;;7392608;19;20616;-76
2023/03/09 06:37:17;;;;;;;4.67;1.00;;;11.00;99.90;;;;;;7393089;19;20138;-75
2023/03/09 06:39:43;;;;;;;10.47;2.03;;;11.10;99.90;;;;;;7393809;19;20138;-76
2023/03/09 06:42:10;;;;;;;5.25;1.20;;;11.10;99.90;;;;;;7393074;19;20206;-75
2023/03/09 06:44:36;;;;;;;4.28;1.42;;;11.10;99.90;;;;;;7389401;19;20239;-75
2023/03/09 06:47:02;;;;;;;2.63;1.10;;;11.20;99.90;;;;;;7392465;19;20151;-76
2023/03/09 06:49:27;;;;;;;2.90;0.90;;;11.30;99.90;;;;;;7392660;19;20507;-76
2023/03/09 06:51:53;;;;;;;2.67;1.63;;;11.50;99.90;;;;;;7394697;19;20138;-75
2023/03/09 06:54:19;;;;;;;3.57;1.37;;;11.20;99.90;;;;;;7392374;19;20600;-76
2023/03/09 06:56:44;;;;;;;5.82;1.80;;;11.20;99.90;;;;;;7394165;19;20122;-76
2023/03/09 06:59:10;;;;;;;5.68;2.03;;;11.50;99.90;;;;;;7393053;19;20780;-76
2023/03/09 07:01:36;;;;;;;6.93;2.13;;;11.50;99.90;;;;;;7392647;19;20567;-77
2023/03/09 07:04:02;;;;;;;8.27;1.53;;;11.40;99.90;;;;;;7389760;19;20150;-79
2023/03/09 07:06:28;;;;;;;4.75;1.40;;;11.60;99.90;;;;;;7390696;19;20146;-78
2023/03/09 07:08:54;;;;;;;3.87;1.07;;;11.40;99.90;;;;;;7391975;19;20218;-77
2023/03/09 07:11:19;;;;;;;2.93;1.10;;;11.30;99.90;;;;;;7393250;19;20150;-77
2023/03/09 07:13:45;;;;;;;6.23;1.47;;;11.30;99.90;;;;;;7390785;19;20548;-77
2023/03/09 07:16:11;;;;;;;3.53;1.63;;;11.20;99.90;;;;;;7392908;19;20247;-76
2023/03/09 07:18:36;;;;;;;5.47;1.30;;;11.40;99.90;;;;;;7392540;19;20187;-78
2023/03/09 07:21:03;;;;;;;5.53;1.50;;;11.40;99.90;;;;;;7390229;19;20574;-75
2023/03/09 07:23:31;;;;;;;6.83;1.57;;;11.60;99.90;;;;;;7391001;19;20135;-76
2023/03/09 07:26:04;;;;;;;5.03;1.00;;;11.70;99.90;;;;;;7391402;19;20154;-76
2023/03/09 07:28:31;;;;;;;6.07;1.63;;;11.70;99.90;;;;;;7391293;19;20150;-76
2023/03/09 07:30:56;;;;;;;3.77;1.17;;;11.80;99.90;;;;;;7392415;19;20143;-77
2023/03/09 07:33:22;;;;;;;4.63;1.33;;;11.70;99.90;;;;;;7391323;19;20140;-76
2023/03/09 07:35:49;;;;;;;4.75;1.45;;;11.60;99.90;;;;;;7390548;19;20606;-76
2023/03/09 07:38:15;;;;;;;5.10;1.38;;;11.50;99.90;;;;;;7392484;19;20158;-76
2023/03/09 07:40:41;;;;;;;8.18;1.70;;;11.40;99.90;;;;;;7390621;19;20134;-77
2023/03/09 07:43:12;;;;;;;5.38;1.30;;;11.50;99.90;;;;;;7392566;19;20142;-75
2023/03/09 07:45:38;;;;;;;3.77;0.90;;;11.60;99.90;;;;;;7393489;19;20142;-75
2023/03/09 07:48:04;;;;;;;5.03;1.20;;;11.60;99.90;;;;;;7392487;19;20141;-76
2023/03/09 07:50:30;;;;;;;4.40;1.25;;;11.80;99.90;;;;;;7392448;19;20145;-77
2023/03/09 07:52:57;;;;;;;4.70;1.27;;;11.90;99.90;;;;;;7390621;19;20139;-77
2023/03/09 07:55:23;;;;;;;2.47;1.10;;;12.00;99.90;;;;;;7391382;19;20143;-76
2023/03/09 07:57:49;;;;;;;4.70;1.00;;;12.30;99.90;;;;;;7392655;19;20475;-76
2023/03/09 08:00:20;;;;;;;2.63;1.03;;;12.20;99.90;;;;;;7392005;19;20153;-76
2023/03/09 08:02:49;;;;;;;3.10;0.90;;;12.30;99.90;;;;;;7391718;19;20162;-76
2023/03/09 08:05:15;;;;;;;5.50;0.90;;;12.40;99.90;;;;;;7389190;19;20135;-75
2023/03/09 08:07:42;;;;;;;3.70;1.20;;;12.40;99.90;;;;;;7391544;19;20614;-76
2023/03/09 08:10:08;;;;;;;8.50;3.15;;;12.50;99.90;;;;;;7389587;19;20135;-76
2023/03/09 08:12:35;;;;;;;7.35;3.58;;;12.60;99.90;;;;;;7391526;19;20138;-76
2023/03/09 08:15:01;;;;;;;3.42;1.42;;;12.60;99.90;;;;;;7389702;19;20194;-76
2023/03/09 08:17:28;;;;;;;2.75;1.20;;;12.70;99.90;;;;;;7391358;19;20500;-75
2023/03/09 08:19:53;;;;;;;4.13;0.98;;;12.60;99.90;;;;;;7391899;19;20149;-76
2023/03/09 08:22:20;;;;;;;3.30;0.97;;;12.50;99.90;;;;;;7389619;19;20159;-76
2023/03/09 08:24:45;;;;;;;2.60;1.08;;;12.60;99.90;;;;;;7389272;19;20135;-76
2023/03/09 08:27:11;;;;;;;3.88;0.90;;;12.60;99.90;;;;;;7389749;19;20182;-77
2023/03/09 08:29:37;;;;;;;2.90;0.80;;;12.70;99.90;;;;;;7391136;19;20146;-77
2023/03/09 08:32:09;;;;;;;4.17;1.13;;;12.80;99.90;;;;;;7389115;19;20134;-76
2023/03/09 08:34:38;;;;;;;4.47;1.42;;;13.00;99.90;;;;;;7392513;19;20135;-75
2023/03/09 08:37:04;;;;;;;1.02;0.65;;;12.80;99.90;;;;;;7389561;19;20135;-76
2023/03/09 08:39:30;;;;;;;2.83;1.10;;;12.80;99.90;;;;;;7391008;19;20126;-75
2023/03/09 08:41:58;;;;;;;2.92;0.70;;;12.70;99.90;;;;;;7394984;19;20143;-76
2023/03/09 08:44:24;;;;;;;2.70;1.02;;;12.80;99.90;;;;;;7387400;19;20465;-76
2023/03/09 08:46:50;;;;;;;5.32;1.20;;;12.80;99.90;;;;;;7390761;19;20130;-75
2023/03/09 08:49:16;;;;;;;3.33;1.33;;;13.00;99.90;;;;;;7387881;19;20143;-75
2023/03/09 08:51:42;;;;;;;5.07;1.52;;;13.10;99.90;;;;;;7388139;19;20214;-76
2023/03/09 08:54:07;;;;;;;1.27;0.60;;;13.00;99.90;;;;;;7388895;19;20235;-77
2023/03/09 08:56:33;;;;;;;3.88;1.00;;;13.00;99.90;;;;;;7389184;19;20912;-76
2023/03/09 08:58:59;;;;;;;4.85;1.00;;;12.90;99.90;;;;;;7386962;19;20154;-75
2023/03/09 09:01:25;;;;;;;3.30;1.10;;;13.10;99.90;;;;;;7391454;19;20130;-76
2023/03/09 09:03:50;;;;;;;3.90;2.00;;;13.30;99.90;;;;;;7387040;19;20160;-78
2023/03/09 09:06:16;;;;;;;3.05;1.20;;;13.50;99.90;;;;;;7388005;19;20127;-75
2023/03/09 09:08:42;;;;;;;3.97;2.03;;;13.80;99.90;;;;;;7388549;19;20154;-76
2023/03/09 09:11:11;;;;;;;2.63;1.20;;;13.70;99.90;;;;;;7389483;19;20638;-76
2023/03/09 09:13:37;;;;;;;1.85;0.70;;;13.70;99.90;;;;;;7389220;19;20143;-75
2023/03/09 09:16:05;;;;;;;3.63;1.20;;;13.50;99.90;;;;;;7388107;19;20127;-75
2023/03/09 09:18:32;;;;;;;4.85;0.90;;;13.30;99.90;;;;;;7391557;19;20134;-76
2023/03/09 09:21:07;;;;;;;2.33;0.75;;;13.10;99.90;;;;;;7390023;19;20142;-76
2023/03/09 09:23:37;;;;;;;2.70;1.20;;;12.90;99.90;;;;;;7387313;19;20178;-76
2023/03/09 09:26:05;;;;;;;5.57;1.40;;;12.40;99.90;;;;;;7389803;19;20460;-76
2023/03/09 09:28:31;;;;;;;5.73;1.00;;;12.40;99.90;;;;;;7386984;19;20206;-76
2023/03/09 09:31:03;;;;;;;3.10;0.77;;;12.30;99.90;;;;;;7388417;19;20605;-76
2023/03/09 09:33:31;;;;;;;3.15;0.85;;;12.40;99.90;;;;;;7399376;19;20166;-77
2023/03/09 09:35:58;;;;;;;2.53;0.95;;;12.80;99.90;;;;;;7388638;19;20154;-75
2023/03/09 09:38:25;;;;;;;2.47;0.80;;;12.90;99.90;;;;;;7389167;19;20251;-76
2023/03/09 09:40:53;;;;;;;4.10;0.90;;;13.00;99.90;;;;;;7388211;19;20636;-76
2023/03/09 09:43:23;;;;;;;2.15;0.90;;;13.10;99.90;;;;;;7385706;19;20174;-75
2023/03/09 09:45:53;;;;;;;2.00;0.90;;;13.40;99.90;;;;;;7386942;19;20134;-76
2023/03/09 09:48:22;;;;;;;2.25;1.10;;;13.50;99.90;;;;;;7387905;19;20146;-75
2023/03/09 09:51:12;;;;;;;4.38;1.00;;;13.70;99.90;;;;;;7389120;19;20146;-75
2023/03/09 09:53:49;;;;;;;1.90;0.95;;;13.80;99.90;;;;;;7389621;19;20149;-74
2023/03/09 09:56:24;;;;;;;3.43;1.23;;;13.70;99.90;;;;;;7386580;19;20482;-77
2023/03/09 09:59:03;;;;;;;1.77;0.80;;;13.70;99.90;;;;;;7386885;19;20488;-76
2023/03/09 10:01:52;;;;;;;4.53;1.08;;;13.70;99.90;;;;;;7389561;19;20500;-76
2023/03/09 10:04:27;;;;;;;3.22;0.80;;;13.60;99.90;;;;;;7385125;19;20185;-76
2023/03/09 10:06:57;;;;;;;1.30;0.80;;;13.30;99.90;;;;;;7386468;19;20682;-76
2023/03/09 10:09:26;;;;;;;1.92;0.75;;;13.30;99.90;;;;;;7387349;19;20482;-77
2023/03/09 10:11:59;;;;;;;2.00;0.90;;;13.00;99.90;;;;;;7387857;19;20637;-76
2023/03/09 10:14:35;;;;;;;3.03;2.20;;;13.30;99.90;;;;;;7387109;19;20890;-76
2023/03/09 10:17:17;;;;;;;3.22;1.40;;;13.30;99.90;;;;;;7388008;19;20140;-78
2023/03/09 10:19:46;;;;;;;2.78;1.20;;;13.40;99.90;;;;;;7388699;19;20147;-76
2023/03/09 10:22:11;;;;;;;1.13;1.00;;;13.30;99.90;;;;;;7384788;19;20562;-76
2023/03/09 10:24:52;;;;;;;2.15;1.00;;;13.30;99.90;;;;;;7386945;19;20131;-77
2023/03/09 10:27:23;;;;;;;2.47;0.88;;;13.40;99.90;;;;;;7385448;19;20142;-76
2023/03/09 10:30:09;;;;;;;2.35;1.23;;;13.30;99.90;;;;;;7386841;19;20178;-76
2023/03/09 10:33:07;;;;;;;1.98;1.15;;;13.50;99.90;;;;;;7383628;19;20521;-75
2023/03/09 10:35:46;;;;;;;2.13;0.90;;;13.60;99.90;;;;;;7384050;19;20455;-76
2023/03/09 10:38:13;;;;;;;1.70;0.80;;;13.70;99.90;;;;;;7387446;19;20467;-76
2023/03/09 10:40:51;;;;;;;1.77;0.85;;;13.60;99.90;;;;;;7395400;19;20463;-75
2023/03/09 10:43:25;;;;;;;2.38;1.55;;;13.60;99.90;;;;;;7385534;19;20138;-76
2023/03/09 10:45:51;;;;;;;2.25;1.20;;;13.90;99.90;;;;;;7385000;19;20143;-75
2023/03/09 10:48:20;;;;;;;3.55;0.88;;;14.00;99.90;;;;;;7385719;19;20170;-76
2023/03/09 10:51:01;;;;;;;7.43;3.35;;;14.30;99.90;;;;;;7385760;19;20131;-75
2023/03/09 10:53:29;;;;;;;3.22;1.23;;;14.40;99.90;;;;;;7384847;19;20147;-76
2023/03/09 10:56:25;;;;;;;1.45;0.80;;;14.70;99.90;;;;;;7390453;19;20143;-73
2023/03/09 10:59:03;;;;;;;1.30;0.80;;;14.70;99.90;;;;;;7383734;19;20598;-76
2023/03/09 11:01:29;;;;;;;5.35;1.65;;;14.50;99.90;;;;;;7387537;19;20138;-75
2023/03/09 11:03:55;;;;;;;3.17;0.70;;;14.70;99.90;;;;;;7390032;19;20159;-77
2023/03/09 11:06:33;;;;;;;3.50;0.70;;;14.80;99.90;;;;;;7396267;19;20615;-75
2023/03/09 11:09:11;;;;;;;2.35;0.77;;;14.60;99.90;;;;;;7396107;19;20141;-76
2023/03/09 11:11:37;;;;;;;4.00;1.88;;;14.70;99.90;;;;;;7392209;19;20476;-76
2023/03/09 11:14:03;;;;;;;3.05;0.93;;;14.70;99.90;;;;;;7389863;19;20135;-75
2023/03/09 11:16:34;;;;;;;2.05;0.60;;;14.90;99.90;;;;;;7392030;19;20154;-76
2023/03/09 11:19:08;;;;;;;1.20;0.70;;;15.00;99.90;;;;;;7392447;19;20151;-77
2023/03/09 11:21:35;;;;;;;1.95;0.80;;;15.00;99.90;;;;;;7391040;19;20146;-76
2023/03/09 11:24:03;;;;;;;2.50;0.70;;;14.90;99.90;;;;;;7395118;19;20239;-75
2023/03/09 11:26:41;;;;;;;2.10;1.00;;;15.00;99.90;;;;;;7398548;19;20584;-76
2023/03/09 11:29:20;;;;;;;2.45;0.95;;;14.90;99.90;;;;;;7395629;19;20154;-76
2023/03/09 11:31:46;;;;;;;1.85;0.63;;;15.00;99.90;;;;;;7391299;19;20131;-76
2023/03/09 11:34:25;;;;;;;1.98;0.90;;;14.80;99.90;;;;;;7390147;19;20295;-77
2023/03/09 11:37:16;;;;;;;2.05;1.00;;;14.90;99.90;;;;;;7391875;19;20177;-75
2023/03/09 11:39:51;;;;;;;1.85;0.82;;;15.00;99.90;;;;;;7399665;19;20157;-75
2023/03/09 11:42:28;;;;;;;3.45;1.50;;;15.10;99.90;;;;;;7392036;19;20157;-75
2023/03/09 11:44:54;;;;;;;2.40;1.10;;;15.30;99.90;;;;;;7389996;19;20153;-76
2023/03/09 11:47:35;;;;;;;6.00;1.02;;;15.40;99.90;;;;;;7390741;19;21199;-76
2023/03/09 11:50:09;;;;;;;1.90;0.90;;;15.50;99.90;;;;;;7389776;19;20154;-77
2023/03/09 11:52:41;;;;;;;3.50;1.23;;;15.50;99.90;;;;;;7382688;19;20146;-77
2023/03/09 11:55:15;;;;;;;6.20;1.33;;;15.50;99.90;;;;;;7389832;19;20143;-79
2023/03/09 11:57:44;;;;;;;2.33;0.80;;;15.50;99.90;;;;;;7391851;19;20134;-77
2023/03/09 12:00:18;;;;;;;1.63;0.95;;;15.30;99.90;;;;;;7394496;19;20127;-75
2023/03/09 12:03:11;;;;;;;3.25;0.82;;;15.20;99.90;;;;;;7391385;19;20137;-76
2023/03/09 12:05:42;;;;;;;3.13;1.20;;;14.90;99.90;;;;;;7387725;19;20142;-74
2023/03/09 12:08:16;;;;;;;3.30;0.82;;;14.90;99.90;;;;;;7390858;19;20127;-76
2023/03/09 12:10:52;;;;;;;2.03;0.90;;;15.00;99.90;;;;;;7391231;19;20131;-76
2023/03/09 12:13:21;;;;;;;4.07;1.25;;;14.90;99.90;;;;;;7387370;19;20150;-76
2023/03/09 12:16:02;;;;;;;2.67;0.90;;;14.90;99.90;;;;;;7391044;19;20595;-76
2023/03/09 12:18:33;;;;;;;4.22;1.13;;;14.80;99.90;;;;;;7390137;19;20198;-76
2023/03/09 12:21:10;;;;;;;3.08;1.40;;;14.80;99.90;;;;;;7389453;19;20146;-77
2023/03/09 12:23:36;;;;;;;5.22;1.00;;;14.70;99.90;;;;;;7390257;19;20130;-76
2023/03/09 12:26:24;;;;;;;3.65;1.10;;;14.70;99.90;;;;;;7389432;19;20157;-78
2023/03/09 12:29:18;;;;;;;2.72;0.80;;;14.90;99.90;;;;;;7389901;19;20162;-76
2023/03/09 12:31:44;;;;;;;2.58;0.80;;;15.00;99.90;;;;;;7388812;19;20159;-76
2023/03/09 12:34:16;;;;;;;2.13;0.80;;;15.20;99.90;;;;;;7389354;19;20142;-77
2023/03/09 12:36:42;;;;;;;3.42;0.88;;;15.50;99.90;;;;;;7389896;19;20158;-76
2023/03/09 12:39:26;;;;;;;3.53;0.93;;;15.20;99.90;;;;;;7388433;19;20135;-76
2023/03/09 12:42:01;;;;;;;1.85;0.90;;;15.40;99.90;;;;;;7391208;19;20164;-78
2023/03/09 12:44:42;;;;;;;1.27;0.85;;;15.50;99.90;;;;;;7388715;19;20133;-76
2023/03/09 12:47:53;;;;;;;3.40;1.10;;;15.50;99.90;;;;;;7388476;19;20541;-76
2023/03/09 12:50:42;;;;;;;1.80;0.80;;;15.40;99.90;;;;;;7388482;19;20135;-76
2023/03/09 12:53:10;;;;;;;5.22;0.95;;;15.30;99.90;;;;;;7388210;19;20157;-76
2023/03/09 12:55:36;;;;;;;3.50;1.40;;;15.50;99.90;;;;;;7387710;19;20150;-77
2023/03/09 13:01:03;;;;;;;1.50;0.88;;;15.40;99.90;;;;;;7388828;19;20599;-76